sensor_id;sensor_type;location;lat;lon;timestamp;temperature;humidity
39345;DHT22;25061;51.954;6.996;2023-05-10T04:30:48;12.50;99.90
39345;DHT22;25061;51.954;6.996;2023-05-10T04:33:14;12.50;99.90
39345;DHT22;25061;51.954;6.996;2023-05-10T04:35:39;12.50;99.90
39345;DHT22;25061;51.954;6.996;2023-05-10T04:38:05;12.50;99.90
39345;DHT22;25061;51.954;6.996;2023-05-10T04:40:30;12.40;99.90
39345;DHT22;25061;51.954;6.996;2023-05-10T04:42:56;12.40;99.90
39345;DHT22;25061;51.954;6.996;2023-05-10T04:45:22;12.50;99.90
39345;DHT22;25061;51.954;6.996;2023-05-10T04:47:47;12.50;99.90
39345;DHT22;25061;51.954;6.996;2023-05-10T04:50:13;12.50;99.90
39345;DHT22;25061;51.954;6.996;2023-05-10T04:52:39;12.50;99.90
39345;DHT22;25061;51.954;6.996;2023-05-10T04:55:04;12.50;99.90
39345;DHT22;25061;51.954;6.996;2023-05-10T04:57:32;12.50;99.90
39345;DHT22;25061;51.954;6.996;2023-05-10T04:59:58;12.50;99.90
39345;DHT22;25061;51.954;6.996;2023-05-10T05:02:24;12.50;99.90
39345;DHT22;25061;51.954;6.996;2023-05-10T05:04:50;12.60;99.90
39345;DHT22;25061;51.954;6.996;2023-05-10T05:07:16;12.60;99.90
39345;DHT22;25061;51.954;6.996;2023-05-10T05:09:41;12.60;99.90
39345;DHT22;25061;51.954;6.996;2023-05-10T05:12:07;12.60;99.90
39345;DHT22;25061;51.954;6.996;2023-05-10T05:14:33;12.60;99.90
39345;DHT22;25061;51.954;6.996;2023-05-10T05:16:58;12.60;99.90
39345;DHT22;25061;51.954;6.996;2023-05-10T05:19:24;12.70;99.90
39345;DHT22;25061;51.954;6.996;2023-05-10T05:21:49;12.60;99.90
39345;DHT22;25061;51.954;6.996;2023-05-10T05:24:15;12.60;99.90
39345;DHT22;25061;51.954;6.996;2023-05-10T05:26:41;12.60;99.90
39345;DHT22;25061;51.954;6.996;2023-05-10T05:29:06;12.70;99.90
39345;DHT22;25061;51.954;6.996;2023-05-10T05:31:32;12.70;99.90
39345;DHT22;25061;51.954;6.996;2023-05-10T05:33:59;12.70;99.90
39345;DHT22;25061;51.954;6.996;2023-05-10T05:36:25;12.60;99.90
39345;DHT22;25061;51.954;6.996;2023-05-10T05:38:50;12.70;99.90
39345;DHT22;25061;51.954;6.996;2023-05-10T05:41:16;12.80;99.90
39345;DHT22;25061;51.954;6.996;2023-05-10T05:43:41;12.70;99.90
39345;DHT22;25061;51.954;6.996;2023-05-10T05:46:07;12.70;99.90
39345;DHT22;25061;51.954;6.996;2023-05-10T05:48:33;12.70;99.90
39345;DHT22;25061;51.954;6.996;2023-05-10T05:50:58;12.70;99.90
39345;DHT22;25061;51.954;6.996;2023-05-10T05:53:24;12.70;99.90
39345;DHT22;25061;51.954;6.996;2023-05-10T05:55:54;12.70;99.90
39345;DHT22;25061;51.954;6.996;2023-05-10T05:58:21;12.80;99.90
39345;DHT22;25061;51.954;6.996;2023-05-10T06:00:46;12.80;99.90
39345;DHT22;25061;51.954;6.996;2023-05-10T06:03:12;12.80;99.90
39345;DHT22;25061;51.954;6.996;2023-05-10T06:05:38;12.80;99.90
39345;DHT22;25061;51.954;6.996;2023-05-10T06:08:03;12.80;99.90
39345;DHT22;25061;51.954;6.996;2023-05-10T06:10:29;12.80;99.90
39345;DHT22;25061;51.954;6.996;2023-05-10T06:12:55;12.80;99.90
39345;DHT22;25061;51.954;6.996;2023-05-10T06:15:21;12.80;99.90
39345;DHT22;25061;51.954;6.996;2023-05-10T06:17:47;12.80;99.90
39345;DHT22;25061;51.954;6.996;2023-05-10T06:20:15;12.80;99.90
39345;DHT22;25061;51.954;6.996;2023-05-10T06:22:40;12.80;99.90
39345;DHT22;25061;51.954;6.996;2023-05-10T06:25:07;12.80;99.90
39345;DHT22;25061;51.954;6.996;2023-05-10T06:27:32;12.80;99.90
39345;DHT22;25061;51.954;6.996;2023-05-10T06:29:58;12.80;99.90
39345;DHT22;25061;51.954;6.996;2023-05-10T06:32:24;12.80;99.90
39345;DHT22;25061;51.954;6.996;2023-05-10T06:34:49;12.80;99.90
39345;DHT22;25061;51.954;6.996;2023-05-10T06:37:15;12.90;99.90
39345;DHT22;25061;51.954;6.996;2023-05-10T06:39:40;12.90;99.90
39345;DHT22;25061;51.954;6.996;2023-05-10T06:42:06;12.80;99.90
39345;DHT22;25061;51.954;6.996;2023-05-10T06:44:32;12.80;99.90
39345;DHT22;25061;51.954;6.996;2023-05-10T06:46:57;12.90;99.90
39345;DHT22;25061;51.954;6.996;2023-05-10T06:49:23;13.00;99.90
39345;DHT22;25061;51.954;6.996;2023-05-10T06:51:49;13.00;99.90
39345;DHT22;25061;51.954;6.996;2023-05-10T06:54:14;13.10;99.90
39345;DHT22;25061;51.954;6.996;2023-05-10T06:56:40;13.20;99.90
39345;DHT22;25061;51.954;6.996;2023-05-10T06:59:05;13.20;99.90
39345;DHT22;25061;51.954;6.996;2023-05-10T07:01:32;13.30;99.90
39345;DHT22;25061;51.954;6.996;2023-05-10T07:03:57;13.40;99.90
39345;DHT22;25061;51.954;6.996;2023-05-10T07:06:23;13.40;99.90
39345;DHT22;25061;51.954;6.996;2023-05-10T07:08:48;13.30;99.90
39345;DHT22;25061;51.954;6.996;2023-05-10T07:11:14;13.40;99.90
39345;DHT22;25061;51.954;6.996;2023-05-10T07:13:39;13.40;99.90
39345;DHT22;25061;51.954;6.996;2023-05-10T07:16:09;13.50;99.90
39345;DHT22;25061;51.954;6.996;2023-05-10T07:18:35;13.50;99.90
39345;DHT22;25061;51.954;6.996;2023-05-10T07:21:01;13.50;99.90
39345;DHT22;25061;51.954;6.996;2023-05-10T07:23:27;13.50;99.90
39345;DHT22;25061;51.954;6.996;2023-05-10T07:25:53;13.50;99.90
39345;DHT22;25061;51.954;6.996;2023-05-10T07:28:19;13.50;99.90
39345;DHT22;25061;51.954;6.996;2023-05-10T07:30:45;13.50;99.90
39345;DHT22;25061;51.954;6.996;2023-05-10T07:33:13;13.50;99.90
39345;DHT22;25061;51.954;6.996;2023-05-10T07:35:39;13.50;99.90
39345;DHT22;25061;51.954;6.996;2023-05-10T07:38:05;13.50;99.90
39345;DHT22;25061;51.954;6.996;2023-05-10T07:40:31;13.60;99.90
39345;DHT22;25061;51.954;6.996;2023-05-10T07:42:57;13.70;99.90
39345;DHT22;25061;51.954;6.996;2023-05-10T07:45:23;13.60;99.90
39345;DHT22;25061;51.954;6.996;2023-05-10T07:47:49;13.60;99.90
39345;DHT22;25061;51.954;6.996;2023-05-10T07:50:15;13.60;99.90
39345;DHT22;25061;51.954;6.996;2023-05-10T07:52:40;13.70;99.90
39345;DHT22;25061;51.954;6.996;2023-05-10T07:55:06;13.60;99.90
39345;DHT22;25061;51.954;6.996;2023-05-10T07:57:34;13.60;99.90
39345;DHT22;25061;51.954;6.996;2023-05-10T08:00:00;13.80;99.90
39345;DHT22;25061;51.954;6.996;2023-05-10T08:02:27;13.70;99.90
39345;DHT22;25061;51.954;6.996;2023-05-10T08:04:53;13.80;99.90
39345;DHT22;25061;51.954;6.996;2023-05-10T08:07:18;13.90;99.90
39345;DHT22;25061;51.954;6.996;2023-05-10T08:09:44;13.80;99.90
39345;DHT22;25061;51.954;6.996;2023-05-10T08:12:10;13.80;99.90
39345;DHT22;25061;51.954;6.996;2023-05-10T08:14:36;13.80;99.90
39345;DHT22;25061;51.954;6.996;2023-05-10T08:17:03;13.80;99.90
39345;DHT22;25061;51.954;6.996;2023-05-10T08:19:30;13.80;99.90
39345;DHT22;25061;51.954;6.996;2023-05-10T08:21:57;13.90;99.90
39345;DHT22;25061;51.954;6.996;2023-05-10T08:24:23;13.90;99.90
39345;DHT22;25061;51.954;6.996;2023-05-10T08:26:48;13.90;99.90
39345;DHT22;25061;51.954;6.996;2023-05-10T08:29:14;14.10;99.90
39345;DHT22;25061;51.954;6.996;2023-05-10T08:31:40;14.30;99.90
39345;DHT22;25061;51.954;6.996;2023-05-10T08:34:06;14.30;99.90
39345;DHT22;25061;51.954;6.996;2023-05-10T08:36:32;14.30;99.90
39345;DHT22;25061;51.954;6.996;2023-05-10T08:38:59;14.30;99.90
39345;DHT22;25061;51.954;6.996;2023-05-10T08:41:25;14.30;99.90
39345;DHT22;25061;51.954;6.996;2023-05-10T08:43:52;14.30;99.90
39345;DHT22;25061;51.954;6.996;2023-05-10T08:46:22;14.20;99.90
39345;DHT22;25061;51.954;6.996;2023-05-10T08:48:49;14.30;99.90
39345;DHT22;25061;51.954;6.996;2023-05-10T08:51:19;14.30;99.90
39345;DHT22;25061;51.954;6.996;2023-05-10T08:53:47;14.30;99.90
39345;DHT22;25061;51.954;6.996;2023-05-10T08:56:12;14.40;99.90
39345;DHT22;25061;51.954;6.996;2023-05-10T08:58:38;14.40;99.90
39345;DHT22;25061;51.954;6.996;2023-05-10T09:01:05;14.30;99.90
39345;DHT22;25061;51.954;6.996;2023-05-10T09:03:31;14.30;99.90
39345;DHT22;25061;51.954;6.996;2023-05-10T09:05:58;14.20;99.90
39345;DHT22;25061;51.954;6.996;2023-05-10T09:08:24;14.20;99.90
39345;DHT22;25061;51.954;6.996;2023-05-10T09:10:54;14.20;99.90
39345;DHT22;25061;51.954;6.996;2023-05-10T09:13:21;14.20;99.90
39345;DHT22;25061;51.954;6.996;2023-05-10T09:15:47;14.10;99.90
39345;DHT22;25061;51.954;6.996;2023-05-10T09:18:13;14.10;99.90
39345;DHT22;25061;51.954;6.996;2023-05-10T09:20:39;14.20;99.90
39345;DHT22;25061;51.954;6.996;2023-05-10T09:23:05;14.20;99.90
39345;DHT22;25061;51.954;6.996;2023-05-10T09:25:31;14.20;99.90
39345;DHT22;25061;51.954;6.996;2023-05-10T09:27:59;14.20;99.90
39345;DHT22;25061;51.954;6.996;2023-05-10T09:30:30;14.20;99.90
39345;DHT22;25061;51.954;6.996;2023-05-10T09:32:57;14.40;99.90
39345;DHT22;25061;51.954;6.996;2023-05-10T09:35:25;14.30;99.90
39345;DHT22;25061;51.954;6.996;2023-05-10T09:37:53;14.40;99.90
39345;DHT22;25061;51.954;6.996;2023-05-10T09:40:27;14.50;99.90
39345;DHT22;25061;51.954;6.996;2023-05-10T09:43:04;14.70;99.90
39345;DHT22;25061;51.954;6.996;2023-05-10T09:45:33;14.80;99.90
39345;DHT22;25061;51.954;6.996;2023-05-10T09:48:00;14.80;99.90
39345;DHT22;25061;51.954;6.996;2023-05-10T09:50:26;14.70;99.90
39345;DHT22;25061;51.954;6.996;2023-05-10T09:52:55;14.70;99.90
39345;DHT22;25061;51.954;6.996;2023-05-10T09:58:06;14.60;99.90
39345;DHT22;25061;51.954;6.996;2023-05-10T10:00:37;14.50;99.90
39345;DHT22;25061;51.954;6.996;2023-05-10T10:03:03;14.40;99.90
39345;DHT22;25061;51.954;6.996;2023-05-10T10:05:34;14.30;99.90
39345;DHT22;25061;51.954;6.996;2023-05-10T10:08:04;14.20;99.90
39345;DHT22;25061;51.954;6.996;2023-05-10T10:10:31;14.20;99.90
39345;DHT22;25061;51.954;6.996;2023-05-10T10:12:58;14.30;99.90
39345;DHT22;25061;51.954;6.996;2023-05-10T10:15:25;14.30;99.90
39345;DHT22;25061;51.954;6.996;2023-05-10T10:17:52;14.40;99.90
39345;DHT22;25061;51.954;6.996;2023-05-10T10:20:19;14.50;99.90
39345;DHT22;25061;51.954;6.996;2023-05-10T10:22:44;14.60;99.90
39345;DHT22;25061;51.954;6.996;2023-05-10T10:25:14;14.60;99.90
39345;DHT22;25061;51.954;6.996;2023-05-10T10:30:48;14.70;99.90
39345;DHT22;25061;51.954;6.996;2023-05-10T10:35:45;14.80;99.90
39345;DHT22;25061;51.954;6.996;2023-05-10T10:38:15;15.00;99.90
39345;DHT22;25061;51.954;6.996;2023-05-10T10:40:42;15.10;99.90
39345;DHT22;25061;51.954;6.996;2023-05-10T10:43:31;14.90;99.90
39345;DHT22;25061;51.954;6.996;2023-05-10T10:46:12;15.00;99.90
39345;DHT22;25061;51.954;6.996;2023-05-10T10:48:40;15.00;99.90
39345;DHT22;25061;51.954;6.996;2023-05-10T10:51:06;15.30;99.90
39345;DHT22;25061;51.954;6.996;2023-05-10T10:53:34;15.20;99.90
39345;DHT22;25061;51.954;6.996;2023-05-10T10:56:08;15.30;99.90
39345;DHT22;25061;51.954;6.996;2023-05-10T10:58:37;15.30;99.90
39345;DHT22;25061;51.954;6.996;2023-05-10T11:01:17;15.30;99.90
39345;DHT22;25061;51.954;6.996;2023-05-10T11:06:33;15.50;99.90
39345;DHT22;25061;51.954;6.996;2023-05-10T11:09:05;15.60;99.90
39345;DHT22;25061;51.954;6.996;2023-05-10T11:11:34;15.60;99.90
39345;DHT22;25061;51.954;6.996;2023-05-10T11:14:04;15.60;99.90
39345;DHT22;25061;51.954;6.996;2023-05-10T11:16:41;15.80;99.90
39345;DHT22;25061;51.954;6.996;2023-05-10T11:19:15;15.70;99.90
39345;DHT22;25061;51.954;6.996;2023-05-10T11:22:12;15.70;99.90
39345;DHT22;25061;51.954;6.996;2023-05-10T11:24:56;15.90;99.90
39345;DHT22;25061;51.954;6.996;2023-05-10T11:27:24;15.90;99.90
39345;DHT22;25061;51.954;6.996;2023-05-10T11:29:53;16.00;99.90
39345;DHT22;25061;51.954;6.996;2023-05-10T11:32:19;15.80;99.90
39345;DHT22;25061;51.954;6.996;2023-05-10T11:34:47;15.80;99.90
39345;DHT22;25061;51.954;6.996;2023-05-10T11:37:13;15.90;99.90
39345;DHT22;25061;51.954;6.996;2023-05-10T11:39:38;15.80;99.90
39345;DHT22;25061;51.954;6.996;2023-05-10T11:42:12;15.90;99.90
39345;DHT22;25061;51.954;6.996;2023-05-10T11:44:37;15.90;99.90
39345;DHT22;25061;51.954;6.996;2023-05-10T11:47:03;16.00;99.90
39345;DHT22;25061;51.954;6.996;2023-05-10T11:49:30;16.20;99.90
39345;DHT22;25061;51.954;6.996;2023-05-10T11:52:06;16.40;99.90
39345;DHT22;25061;51.954;6.996;2023-05-10T11:54:32;16.20;99.90
39345;DHT22;25061;51.954;6.996;2023-05-10T11:57:00;16.00;99.90
39345;DHT22;25061;51.954;6.996;2023-05-10T11:59:27;15.80;99.90
39345;DHT22;25061;51.954;6.996;2023-05-10T12:01:52;15.70;99.90
39345;DHT22;25061;51.954;6.996;2023-05-10T12:04:18;15.40;99.90
39345;DHT22;25061;51.954;6.996;2023-05-10T12:06:44;15.40;99.90
39345;DHT22;25061;51.954;6.996;2023-05-10T12:09:11;15.40;99.90
39345;DHT22;25061;51.954;6.996;2023-05-10T12:11:40;15.40;99.90
39345;DHT22;25061;51.954;6.996;2023-05-10T12:14:07;15.30;99.90
39345;DHT22;25061;51.954;6.996;2023-05-10T12:16:33;15.60;99.90
39345;DHT22;25061;51.954;6.996;2023-05-10T12:19:03;15.70;99.90
39345;DHT22;25061;51.954;6.996;2023-05-10T12:21:30;15.80;99.90
39345;DHT22;25061;51.954;6.996;2023-05-10T12:24:01;15.80;99.90
39345;DHT22;25061;51.954;6.996;2023-05-10T12:26:28;15.70;99.90
39345;DHT22;25061;51.954;6.996;2023-05-10T12:29:37;15.40;99.90
39345;DHT22;25061;51.954;6.996;2023-05-10T12:31:55;15.20;99.90
39345;DHT22;25061;51.954;6.996;2023-05-10T12:34:25;15.20;99.90
39345;DHT22;25061;51.954;6.996;2023-05-10T12:36:54;15.00;99.90
39345;DHT22;25061;51.954;6.996;2023-05-10T12:39:20;15.10;99.90
39345;DHT22;25061;51.954;6.996;2023-05-10T12:41:46;15.20;99.90
39345;DHT22;25061;51.954;6.996;2023-05-10T12:44:12;15.20;99.90
39345;DHT22;25061;51.954;6.996;2023-05-10T12:46:37;15.20;99.90
39345;DHT22;25061;51.954;6.996;2023-05-10T12:49:03;15.00;99.90
39345;DHT22;25061;51.954;6.996;2023-05-10T12:51:28;15.00;99.90
39345;DHT22;25061;51.954;6.996;2023-05-10T12:53:54;14.90;99.90
39345;DHT22;25061;51.954;6.996;2023-05-10T12:56:20;15.00;99.90
39345;DHT22;25061;51.954;6.996;2023-05-10T12:58:46;15.00;99.90
39345;DHT22;25061;51.954;6.996;2023-05-10T13:01:14;14.90;99.90
39345;DHT22;25061;51.954;6.996;2023-05-10T13:03:39;14.90;99.90
39345;DHT22;25061;51.954;6.996;2023-05-10T13:06:05;15.10;99.90
39345;DHT22;25061;51.954;6.996;2023-05-10T13:08:31;15.10;99.90
39345;DHT22;25061;51.954;6.996;2023-05-10T13:11:02;15.10;99.90
39345;DHT22;25061;51.954;6.996;2023-05-10T13:13:28;15.20;99.90
39345;DHT22;25061;51.954;6.996;2023-05-10T13:15:53;15.30;99.90
39345;DHT22;25061;51.954;6.996;2023-05-10T13:18:19;15.40;99.90
39345;DHT22;25061;51.954;6.996;2023-05-10T13:20:45;15.80;99.90
39345;DHT22;25061;51.954;6.996;2023-05-10T13:23:11;16.00;99.90
39345;DHT22;25061;51.954;6.996;2023-05-10T13:25:37;16.20;99.90
39345;DHT22;25061;51.954;6.996;2023-05-10T13:28:02;16.40;99.90
39345;DHT22;25061;51.954;6.996;2023-05-10T13:30:28;16.70;99.90
39345;DHT22;25061;51.954;6.996;2023-05-10T13:32:55;17.00;99.90
39345;DHT22;25061;51.954;6.996;2023-05-10T13:35:20;16.90;99.90
39345;DHT22;25061;51.954;6.996;2023-05-10T13:37:46;17.10;99.90
39345;DHT22;25061;51.954;6.996;2023-05-10T13:40:12;17.40;99.90
39345;DHT22;25061;51.954;6.996;2023-05-10T13:42:40;17.30;99.90
39345;DHT22;25061;51.954;6.996;2023-05-10T13:45:07;16.70;99.90
39345;DHT22;25061;51.954;6.996;2023-05-10T13:47:33;17.20;99.90
39345;DHT22;25061;51.954;6.996;2023-05-10T13:50:00;17.20;99.90
39345;DHT22;25061;51.954;6.996;2023-05-10T13:52:26;17.10;99.90
39345;DHT22;25061;51.954;6.996;2023-05-10T13:54:52;17.00;99.90
39345;DHT22;25061;51.954;6.996;2023-05-10T13:57:26;16.90;99.90
39345;DHT22;25061;51.954;6.996;2023-05-10T13:59:51;16.60;99.90
39345;DHT22;25061;51.954;6.996;2023-05-10T14:02:17;16.40;99.90
39345;DHT22;25061;51.954;6.996;2023-05-10T14:04:43;16.40;99.90
39345;DHT22;25061;51.954;6.996;2023-05-10T14:07:08;16.30;99.90
39345;DHT22;25061;51.954;6.996;2023-05-10T14:09:35;16.30;99.90
39345;DHT22;25061;51.954;6.996;2023-05-10T14:12:01;16.10;99.90
39345;DHT22;25061;51.954;6.996;2023-05-10T14:14:27;16.20;99.90
39345;DHT22;25061;51.954;6.996;2023-05-10T14:16:54;16.10;99.90
39345;DHT22;25061;51.954;6.996;2023-05-10T14:19:20;16.10;99.90
39345;DHT22;25061;51.954;6.996;2023-05-10T14:21:45;16.20;99.90
39345;DHT22;25061;51.954;6.996;2023-05-10T14:24:11;16.10;99.90
39345;DHT22;25061;51.954;6.996;2023-05-10T14:26:38;16.20;99.90
39345;DHT22;25061;51.954;6.996;2023-05-10T14:29:04;16.10;99.90
39345;DHT22;25061;51.954;6.996;2023-05-10T14:31:29;16.10;99.90
39345;DHT22;25061;51.954;6.996;2023-05-10T14:33:55;16.00;99.90
39345;DHT22;25061;51.954;6.996;2023-05-10T14:36:23;16.00;99.90
39345;DHT22;25061;51.954;6.996;2023-05-10T14:38:48;16.10;99.90
39345;DHT22;25061;51.954;6.996;2023-05-10T14:41:16;16.00;99.90
39345;DHT22;25061;51.954;6.996;2023-05-10T14:43:43;16.00;99.90
39345;DHT22;25061;51.954;6.996;2023-05-10T14:46:08;16.10;99.90
39345;DHT22;25061;51.954;6.996;2023-05-10T14:48:34;16.20;99.90
39345;DHT22;25061;51.954;6.996;2023-05-10T14:51:00;16.30;99.90
39345;DHT22;25061;51.954;6.996;2023-05-10T14:53:26;16.20;99.90
39345;DHT22;25061;51.954;6.996;2023-05-10T14:55:54;16.20;99.90
39345;DHT22;25061;51.954;6.996;2023-05-10T14:58:21;16.20;99.90
39345;DHT22;25061;51.954;6.996;2023-05-10T15:00:48;16.30;99.90
39345;DHT22;25061;51.954;6.996;2023-05-10T15:03:14;16.30;99.90
39345;DHT22;25061;51.954;6.996;2023-05-10T15:05:39;16.30;99.90
39345;DHT22;25061;51.954;6.996;2023-05-10T15:08:05;16.10;99.90
39345;DHT22;25061;51.954;6.996;2023-05-10T15:10:31;16.20;99.90
39345;DHT22;25061;51.954;6.996;2023-05-10T15:12:58;16.00;99.90
39345;DHT22;25061;51.954;6.996;2023-05-10T15:15:24;16.20;99.90
39345;DHT22;25061;51.954;6.996;2023-05-10T15:17:51;16.30;99.90
39345;DHT22;25061;51.954;6.996;2023-05-10T15:20:17;16.40;99.90
39345;DHT22;25061;51.954;6.996;2023-05-10T15:22:43;16.50;99.90
39345;DHT22;25061;51.954;6.996;2023-05-10T15:25:08;16.50;99.90
39345;DHT22;25061;51.954;6.996;2023-05-10T15:27:35;16.60;99.90
39345;DHT22;25061;51.954;6.996;2023-05-10T15:30:01;16.80;99.90
39345;DHT22;25061;51.954;6.996;2023-05-10T15:32:26;16.80;99.90
39345;DHT22;25061;51.954;6.996;2023-05-10T15:34:52;16.80;99.90
39345;DHT22;25061;51.954;6.996;2023-05-10T15:37:18;16.70;99.90
39345;DHT22;25061;51.954;6.996;2023-05-10T15:39:44;16.70;99.90
39345;DHT22;25061;51.954;6.996;2023-05-10T15:42:10;16.70;99.90
39345;DHT22;25061;51.954;6.996;2023-05-10T15:44:37;16.80;99.90
39345;DHT22;25061;51.954;6.996;2023-05-10T15:47:04;16.80;99.90
39345;DHT22;25061;51.954;6.996;2023-05-10T15:49:32;16.70;99.90
39345;DHT22;25061;51.954;6.996;2023-05-10T15:51:58;16.60;99.90
39345;DHT22;25061;51.954;6.996;2023-05-10T15:54:26;16.50;99.90
39345;DHT22;25061;51.954;6.996;2023-05-10T15:56:52;16.60;99.90
39345;DHT22;25061;51.954;6.996;2023-05-10T15:59:19;16.60;99.90
39345;DHT22;25061;51.954;6.996;2023-05-10T16:01:46;16.60;99.90
39345;DHT22;25061;51.954;6.996;2023-05-10T16:04:12;16.60;99.90
39345;DHT22;25061;51.954;6.996;2023-05-10T16:06:38;16.50;99.90
39345;DHT22;25061;51.954;6.996;2023-05-10T16:09:06;16.40;99.90
39345;DHT22;25061;51.954;6.996;2023-05-10T16:11:35;16.50;99.90
39345;DHT22;25061;51.954;6.996;2023-05-10T16:14:02;16.40;99.90
39345;DHT22;25061;51.954;6.996;2023-05-10T16:16:28;16.50;99.90
39345;DHT22;25061;51.954;6.996;2023-05-10T16:18:59;16.40;99.90
39345;DHT22;25061;51.954;6.996;2023-05-10T16:21:31;16.40;99.90
39345;DHT22;25061;51.954;6.996;2023-05-10T16:23:58;16.30;99.90
39345;DHT22;25061;51.954;6.996;2023-05-10T16:26:24;16.40;99.90
39345;DHT22;25061;51.954;6.996;2023-05-10T16:28:49;16.40;99.90
39345;DHT22;25061;51.954;6.996;2023-05-10T16:31:15;16.20;99.90
39345;DHT22;25061;51.954;6.996;2023-05-10T16:33:43;15.90;99.90
39345;DHT22;25061;51.954;6.996;2023-05-10T16:36:10;15.80;99.90
39345;DHT22;25061;51.954;6.996;2023-05-10T16:38:36;16.00;99.90
39345;DHT22;25061;51.954;6.996;2023-05-10T16:41:02;15.80;99.90
39345;DHT22;25061;51.954;6.996;2023-05-10T16:43:29;15.90;99.90
39345;DHT22;25061;51.954;6.996;2023-05-10T16:45:56;15.90;99.90
39345;DHT22;25061;51.954;6.996;2023-05-10T16:48:22;15.90;99.90
39345;DHT22;25061;51.954;6.996;2023-05-10T16:50:48;15.70;99.90
39345;DHT22;25061;51.954;6.996;2023-05-10T16:53:18;15.60;99.90
39345;DHT22;25061;51.954;6.996;2023-05-10T16:55:44;15.50;99.90
39345;DHT22;25061;51.954;6.996;2023-05-10T16:58:10;15.50;99.90
39345;DHT22;25061;51.954;6.996;2023-05-10T17:00:36;15.70;99.90
39345;DHT22;25061;51.954;6.996;2023-05-10T17:03:01;15.80;99.90
39345;DHT22;25061;51.954;6.996;2023-05-10T17:05:28;15.80;99.90
39345;DHT22;25061;51.954;6.996;2023-05-10T17:07:53;15.80;99.90
39345;DHT22;25061;51.954;6.996;2023-05-10T17:10:20;15.80;99.90
39345;DHT22;25061;51.954;6.996;2023-05-10T17:12:46;15.70;99.90
39345;DHT22;25061;51.954;6.996;2023-05-10T17:15:11;15.70;99.90
39345;DHT22;25061;51.954;6.996;2023-05-10T17:17:37;15.60;99.90
39345;DHT22;25061;51.954;6.996;2023-05-10T17:20:03;15.70;99.90
39345;DHT22;25061;51.954;6.996;2023-05-10T17:22:29;15.60;99.90
39345;DHT22;25061;51.954;6.996;2023-05-10T17:24:55;15.70;99.90
39345;DHT22;25061;51.954;6.996;2023-05-10T17:27:20;15.70;99.90
39345;DHT22;25061;51.954;6.996;2023-05-10T17:29:46;15.90;99.90
39345;DHT22;25061;51.954;6.996;2023-05-10T17:32:12;16.00;99.90
39345;DHT22;25061;51.954;6.996;2023-05-10T17:34:38;15.70;99.90
39345;DHT22;25061;51.954;6.996;2023-05-10T17:37:04;15.60;99.90
39345;DHT22;25061;51.954;6.996;2023-05-10T17:39:30;15.60;99.90
39345;DHT22;25061;51.954;6.996;2023-05-10T17:41:55;15.40;99.90
39345;DHT22;25061;51.954;6.996;2023-05-10T17:44:21;15.40;99.90
39345;DHT22;25061;51.954;6.996;2023-05-10T17:46:47;15.30;99.90
39345;DHT22;25061;51.954;6.996;2023-05-10T17:49:13;15.40;99.90
39345;DHT22;25061;51.954;6.996;2023-05-10T17:51:39;15.30;99.90
39345;DHT22;25061;51.954;6.996;2023-05-10T17:54:08;15.20;99.90
39345;DHT22;25061;51.954;6.996;2023-05-10T17:56:33;15.00;99.90
39345;DHT22;25061;51.954;6.996;2023-05-10T17:58:59;15.00;99.90
39345;DHT22;25061;51.954;6.996;2023-05-10T18:01:25;15.00;99.90
39345;DHT22;25061;51.954;6.996;2023-05-10T18:03:50;15.00;99.90
39345;DHT22;25061;51.954;6.996;2023-05-10T18:06:17;14.80;99.90
39345;DHT22;25061;51.954;6.996;2023-05-10T18:08:43;14.80;99.90
39345;DHT22;25061;51.954;6.996;2023-05-10T18:11:09;14.70;99.90
39345;DHT22;25061;51.954;6.996;2023-05-10T18:13:35;14.80;99.90
39345;DHT22;25061;51.954;6.996;2023-05-10T18:16:03;14.80;99.90
39345;DHT22;25061;51.954;6.996;2023-05-10T18:18:30;14.90;99.90
39345;DHT22;25061;51.954;6.996;2023-05-10T18:20:56;14.90;99.90
39345;DHT22;25061;51.954;6.996;2023-05-10T18:23:25;14.80;99.90
39345;DHT22;25061;51.954;6.996;2023-05-10T18:25:51;14.90;99.90
39345;DHT22;25061;51.954;6.996;2023-05-10T18:28:17;14.90;99.90
39345;DHT22;25061;51.954;6.996;2023-05-10T18:30:43;15.00;99.90
39345;DHT22;25061;51.954;6.996;2023-05-10T18:33:09;14.90;99.90
39345;DHT22;25061;51.954;6.996;2023-05-10T18:35:39;14.80;99.90
39345;DHT22;25061;51.954;6.996;2023-05-10T18:38:05;14.70;99.90
39345;DHT22;25061;51.954;6.996;2023-05-10T18:40:32;14.80;99.90
39345;DHT22;25061;51.954;6.996;2023-05-10T18:42:57;14.80;99.90
39345;DHT22;25061;51.954;6.996;2023-05-10T18:45:23;14.80;99.90
39345;DHT22;25061;51.954;6.996;2023-05-10T18:47:49;14.80;99.90
39345;DHT22;25061;51.954;6.996;2023-05-10T18:50:14;14.70;99.90
39345;DHT22;25061;51.954;6.996;2023-05-10T18:52:42;14.60;99.90
39345;DHT22;25061;51.954;6.996;2023-05-10T18:55:07;14.60;99.90
39345;DHT22;25061;51.954;6.996;2023-05-10T18:57:33;14.40;99.90
39345;DHT22;25061;51.954;6.996;2023-05-10T19:00:10;14.50;99.90
39345;DHT22;25061;51.954;6.996;2023-05-10T19:02:38;14.60;99.90
39345;DHT22;25061;51.954;6.996;2023-05-10T19:05:05;14.60;99.90
39345;DHT22;25061;51.954;6.996;2023-05-10T19:07:32;14.60;99.90
39345;DHT22;25061;51.954;6.996;2023-05-10T19:09:57;14.50;99.90
39345;DHT22;25061;51.954;6.996;2023-05-10T19:12:23;14.60;99.90
39345;DHT22;25061;51.954;6.996;2023-05-10T19:14:54;14.50;99.90
39345;DHT22;25061;51.954;6.996;2023-05-10T19:17:20;14.40;99.90
39345;DHT22;25061;51.954;6.996;2023-05-10T19:19:45;14.40;99.90
39345;DHT22;25061;51.954;6.996;2023-05-10T19:22:12;14.40;99.90
39345;DHT22;25061;51.954;6.996;2023-05-10T19:24:38;14.30;99.90
39345;DHT22;25061;51.954;6.996;2023-05-10T19:27:10;14.30;99.90
39345;DHT22;25061;51.954;6.996;2023-05-10T19:29:44;14.30;99.90
39345;DHT22;25061;51.954;6.996;2023-05-10T19:32:09;14.30;99.90
39345;DHT22;25061;51.954;6.996;2023-05-10T19:34:36;14.30;99.90
39345;DHT22;25061;51.954;6.996;2023-05-10T19:37:01;14.20;99.90
39345;DHT22;25061;51.954;6.996;2023-05-10T19:39:27;14.20;99.90
39345;DHT22;25061;51.954;6.996;2023-05-10T19:41:55;14.10;99.90
39345;DHT22;25061;51.954;6.996;2023-05-10T19:44:20;14.00;99.90
39345;DHT22;25061;51.954;6.996;2023-05-10T19:46:46;14.00;99.90
39345;DHT22;25061;51.954;6.996;2023-05-10T19:49:11;14.00;99.90
39345;DHT22;25061;51.954;6.996;2023-05-10T19:51:38;13.90;99.90
39345;DHT22;25061;51.954;6.996;2023-05-10T19:54:04;13.90;99.90
39345;DHT22;25061;51.954;6.996;2023-05-10T19:56:30;13.80;99.90
39345;DHT22;25061;51.954;6.996;2023-05-10T19:59:01;13.80;99.90
39345;DHT22;25061;51.954;6.996;2023-05-10T20:01:28;13.80;99.90
39345;DHT22;25061;51.954;6.996;2023-05-10T20:03:55;13.80;99.90
39345;DHT22;25061;51.954;6.996;2023-05-10T20:06:21;13.70;99.90
39345;DHT22;25061;51.954;6.996;2023-05-10T20:08:48;13.80;99.90